CYLH

Lansdowne House Airport

Lansdowne House, Ontario, Canada
METAR CYLH 172100Z AUTO 22008G15KT 9SM OVC011 M07/M08 A2973 RMK SLP093
Observed Flight Rules
Dec-17 @ 21:00 UTC (25 minutes ago) Marginal Visual Flight Rules
Wind Visibility Clouds
220° at 8 knots
 Gusting to 15 knots
9 miles
  • Overcast at 1,100' AGL
Temperatures Readings
Current -7°C / 19°F
Dewpoint -8°C / 18°F
Humidity 93%
Altimeter 29.73" Hg
Pressure 1009.3 hPa
Elevation 254
METAR CYLH 172100Z AUTO 22008G15KT 9SM OVC011 M07/M08 A2973 RMK SLP093
Observed Flight Rules
Dec-17 @ 21:00 UTC
(25 minutes ago)
MVFR
Wind Visibility
220° at 8 knots
 Gusting to 15 knots
9 miles
Clouds
  • Overcast at 1,100' AGL
Temperature Dewpoint
-7°C / 19°F -8°C / 18°F
Humidity Altimeter Pressure
93% 29.73" Hg 1009.3 hPa